createdAt,value
2022-08-29T00:02:52.531Z,24.5
2022-08-29T00:08:34.947Z,24.4
2022-08-29T00:14:15.545Z,24.4
2022-08-29T00:20:00.843Z,24.4
2022-08-29T00:25:27.168Z,24.4
2022-08-29T00:30:52.437Z,24.4
2022-08-29T00:36:31.035Z,24.4
2022-08-29T00:41:59.180Z,24.4
2022-08-29T00:47:21.590Z,24.5
2022-08-29T00:52:43.251Z,24.4
2022-08-29T00:57:47.830Z,24.5
2022-08-29T01:03:30.357Z,24.4
2022-08-29T01:09:14.499Z,24.5
2022-08-29T01:15:02.135Z,24.4
2022-08-29T01:20:23.817Z,24.5
2022-08-29T01:25:45.102Z,24.4
2022-08-29T01:31:37.521Z,24.4
2022-08-29T01:37:33.810Z,24.4
2022-08-29T01:43:14.442Z,24.4
2022-08-29T01:48:55.093Z,24.4
2022-08-29T01:54:31.523Z,24.5
2022-08-29T02:00:12.957Z,24.4
2022-08-29T02:05:36.552Z,24.4
2022-08-29T02:11:13.794Z,24.4
2022-08-29T02:16:34.803Z,24.4
2022-08-29T02:22:11.816Z,24.4
2022-08-29T02:28:16.367Z,24.4
2022-08-29T02:33:28.545Z,24.4
2022-08-29T02:38:58.184Z,24.4
2022-08-29T02:44:34.068Z,24.4
2022-08-29T02:50:26.898Z,24.4
2022-08-29T02:55:50.962Z,24.4
2022-08-29T03:01:15.750Z,24.4
2022-08-29T03:06:37.180Z,24.4
2022-08-29T03:12:05.250Z,24.4
2022-08-29T03:17:44.170Z,24.4
2022-08-29T03:23:20.733Z,24.4
2022-08-29T03:29:07.042Z,24.3
2022-08-29T03:34:16.560Z,24.2
2022-08-29T03:39:39.624Z,24.1
2022-08-29T03:45:18.663Z,24.1
2022-08-29T03:50:56.497Z,24.1
2022-08-29T03:56:35.087Z,24
2022-08-29T04:02:11.799Z,23.9
2022-08-29T04:07:53.661Z,23.9
2022-08-29T04:13:29.845Z,23.8
2022-08-29T04:19:17.105Z,23.8
2022-08-29T04:24:55.143Z,23.8
2022-08-29T04:31:07.697Z,23.7
2022-08-29T04:36:48.539Z,23.6
2022-08-29T04:42:26.311Z,23.6
2022-08-29T04:48:06.152Z,23.5
2022-08-29T04:53:48.283Z,23.5
2022-08-29T04:59:18.758Z,23.4
2022-08-29T05:04:47.720Z,23.4
2022-08-29T05:10:34.245Z,23.4
2022-08-29T05:16:11.552Z,23.4
2022-08-29T05:21:58.759Z,23.4
2022-08-29T05:27:36.538Z,23.3
2022-08-29T05:33:26.165Z,23.3
2022-08-29T05:39:06.232Z,23.4
2022-08-29T05:44:50.792Z,23.4
2022-08-29T05:50:35.531Z,23.4
2022-08-29T05:56:13.121Z,23.4
2022-08-29T06:01:52.865Z,23.5
2022-08-29T06:07:33.716Z,23.5
2022-08-29T06:13:14.607Z,23.5
2022-08-29T06:18:59.898Z,23.6
2022-08-29T06:24:39.552Z,23.6
2022-08-29T06:30:53.441Z,23.6
2022-08-29T06:36:31.906Z,23.6
2022-08-29T06:42:09.056Z,23.6
2022-08-29T06:47:49.371Z,23.7
2022-08-29T06:54:00.073Z,23.7
2022-08-29T06:59:48.168Z,23.8
2022-08-29T07:05:44.827Z,23.8
2022-08-29T07:11:46.126Z,23.8
2022-08-29T07:17:36.065Z,23.8
2022-08-29T07:23:24.533Z,23.8
2022-08-29T07:29:06.971Z,23.8
2022-08-29T07:35:01.371Z,23.9
2022-08-29T07:40:53.688Z,23.9
2022-08-29T07:46:42.716Z,23.9
2022-08-29T07:52:34.727Z,23.9
2022-08-29T07:58:16.723Z,23.9
2022-08-29T08:03:43.048Z,23.9
2022-08-29T08:09:38.274Z,23.9
2022-08-29T08:15:26.399Z,23.9
2022-08-29T08:21:04.789Z,24
2022-08-29T08:26:54.361Z,24
2022-08-29T08:32:34.022Z,24
2022-08-29T08:38:14.610Z,24
2022-08-29T08:43:59.659Z,24.1
2022-08-29T08:49:23.347Z,24.1
2022-08-29T08:55:04.542Z,24.1
2022-08-29T09:00:26.345Z,24.1
2022-08-29T09:06:06.665Z,24.1
2022-08-29T09:11:32.221Z,24.1
2022-08-29T09:17:15.531Z,24.1
2022-08-29T09:23:39.939Z,24.1
2022-08-29T09:29:22.229Z,24.1
2022-08-29T09:35:30.097Z,24.1
2022-08-29T09:41:12.379Z,24.1
2022-08-29T09:46:53.126Z,24.2
2022-08-29T09:52:30.982Z,24.1
2022-08-29T09:58:17.962Z,24.2
2022-08-29T10:04:12.645Z,24.2
2022-08-29T10:09:54.858Z,24.2
2022-08-29T10:15:46.827Z,24.2
2022-08-29T10:21:34.305Z,24.2
2022-08-29T10:27:12.257Z,24.2
2022-08-29T10:32:39.249Z,24.2
2022-08-29T10:38:07.879Z,24.3
2022-08-29T10:43:58.576Z,24.3
2022-08-29T10:49:36.990Z,24.3
2022-08-29T10:55:32.502Z,24.3
2022-08-29T11:01:15.968Z,24.3
2022-08-29T11:06:55.567Z,24.3
2022-08-29T11:12:34.496Z,24.3
2022-08-29T11:18:14.906Z,24.3
2022-08-29T11:23:57.327Z,24.3
2022-08-29T11:29:42.251Z,24.3
2022-08-29T11:35:21.954Z,24.3
2022-08-29T11:41:45.814Z,24.3
2022-08-29T11:48:13.987Z,24.3
2022-08-29T11:53:52.675Z,24.4
2022-08-29T11:59:36.932Z,24.3
2022-08-29T12:05:33.485Z,24.3
2022-08-29T12:11:42.075Z,24.4
2022-08-29T12:17:09.292Z,24.4
2022-08-29T12:23:12.872Z,24.4
2022-08-29T12:29:41.190Z,24.4
2022-08-29T12:35:59.277Z,24.4
2022-08-29T12:41:48.968Z,24.4
2022-08-29T12:46:57.160Z,24.4
2022-08-29T12:52:34.328Z,24.4
2022-08-29T12:58:00.623Z,24.4
2022-08-29T13:03:48.308Z,24.4
2022-08-29T13:09:34.205Z,24.4
2022-08-29T13:15:10.974Z,24.4
2022-08-29T13:21:20.370Z,24.4
2022-08-29T13:27:12.419Z,24.4
2022-08-29T13:32:37.856Z,24.4
2022-08-29T13:38:28.003Z,24.4
2022-08-29T13:44:12.587Z,24.4
2022-08-29T13:49:51.288Z,24.4
2022-08-29T13:55:33.630Z,24.4
2022-08-29T14:02:10.904Z,24.4
2022-08-29T14:08:14.156Z,24.4
2022-08-29T14:13:57.236Z,24.4
2022-08-29T14:19:47.531Z,24.4
2022-08-29T14:25:12.260Z,24.3
2022-08-29T14:31:08.491Z,24.3
2022-08-29T14:37:13.334Z,24.3
2022-08-29T14:42:55.725Z,24.3
2022-08-29T14:48:35.304Z,24.3
2022-08-29T14:54:27.214Z,24.3
2022-08-29T15:00:36.755Z,24.3
2022-08-29T15:06:07.066Z,24.3
2022-08-29T15:11:51.318Z,24.3
2022-08-29T15:17:29.128Z,24.3
2022-08-29T15:24:44.901Z,24.3
2022-08-29T15:30:28.144Z,24.3
2022-08-29T15:36:08.039Z,24.3
2022-08-29T15:41:54.306Z,24.3
2022-08-29T15:47:46.210Z,24.3
2022-08-29T15:53:24.328Z,24.3
2022-08-29T15:59:14.470Z,24.3
2022-08-29T16:05:20.950Z,24.3
2022-08-29T16:11:18.398Z,24.3
